Time;durP1;ratioP1;P1;durP2;ratioP2;P2;SDS_P1;SDS_P2;PMS_P1;PMS_P2;Temp;Humidity;BMP_temperature;BMP_pressure;BME280_temperature;BME280_humidity;BME280_pressure;Samples;Min_cycle;Max_cycle;Signal;HPM_P1;HPM_P2
2022/08/05 00:00:27;;;;;;;7.13;2.33;;;;;;;27.56;39.90;98769.72;4972848;28;20477;-83
2022/08/05 00:02:52;;;;;;;3.17;1.98;;;;;;;27.56;39.92;98773.25;4956840;28;20034;-84
2022/08/05 00:05:19;;;;;;;3.00;2.13;;;;;;;27.50;39.94;98766.09;4972904;28;20042;-84
2022/08/05 00:07:45;;;;;;;3.10;2.28;;;;;;;27.49;39.67;98777.88;4973691;28;20101;-84
2022/08/05 00:10:10;;;;;;;3.05;2.30;;;;;;;27.50;40.11;98779.50;4972623;28;20520;-84
2022/08/05 00:12:36;;;;;;;6.70;2.25;;;;;;;27.47;40.15;98781.81;4972672;28;20560;-84
2022/08/05 00:15:01;;;;;;;2.40;2.05;;;;;;;27.42;40.23;98771.75;4972549;28;20050;-84
2022/08/05 00:17:27;;;;;;;3.20;2.17;;;;;;;27.39;40.05;98775.72;4988814;28;20030;-84
2022/08/05 00:19:52;;;;;;;3.28;2.10;;;;;;;27.38;40.07;98776.75;4955969;28;20047;-84
2022/08/05 00:22:18;;;;;;;6.07;2.47;;;;;;;27.37;39.98;98774.31;4974162;28;20062;-84
2022/08/05 00:24:43;;;;;;;3.72;2.25;;;;;;;27.32;39.89;98763.44;4972585;28;20034;-85
2022/08/05 00:27:09;;;;;;;4.25;2.45;;;;;;;27.34;40.45;98770.22;4988846;28;20022;-86
2022/08/05 00:29:34;;;;;;;3.28;2.05;;;;;;;27.34;40.47;98764.03;4973676;28;20089;-84
2022/08/05 00:32:00;;;;;;;3.55;2.42;;;;;;;27.32;40.32;98764.25;4992603;28;20022;-84
2022/08/05 00:34:26;;;;;;;5.13;2.15;;;;;;;27.32;40.35;98764.25;4963357;28;20458;-86
2022/08/05 00:36:51;;;;;;;2.30;2.00;;;;;;;27.32;40.55;98758.91;4978958;28;20094;-85
2022/08/05 00:39:17;;;;;;;2.85;2.10;;;;;;;27.30;40.61;98758.28;4974814;28;20090;-86
2022/08/05 00:41:46;;;;;;;3.10;2.38;;;;;;;27.30;40.51;98762.84;4972424;28;20042;-85
2022/08/05 00:44:12;;;;;;;4.05;2.30;;;;;;;27.29;40.80;98758.50;4972155;28;20037;-86
2022/08/05 00:46:37;;;;;;;3.03;2.03;;;;;;;27.28;40.43;98760.38;4987845;28;20402;-86
2022/08/05 00:49:03;;;;;;;2.60;2.30;;;;;;;27.23;40.77;98754.84;4955675;28;20034;-86
2022/08/05 00:51:28;;;;;;;4.50;2.20;;;;;;;27.25;40.96;98753.59;4972562;28;20378;-84
2022/08/05 00:53:54;;;;;;;5.35;2.00;;;;;;;27.23;40.82;98747.66;4988806;28;20038;-84
2022/08/05 00:56:19;;;;;;;5.15;2.42;;;;;;;27.18;41.05;98738.66;4975681;28;20031;-84
2022/08/05 00:58:45;;;;;;;5.75;2.10;;;;;;;27.22;41.00;98751.38;4975901;28;20042;-83
2022/08/05 01:01:11;;;;;;;5.30;2.28;;;;;;;27.22;40.84;98748.69;4975521;28;20038;-76
2022/08/05 01:03:39;;;;;;;4.45;2.30;;;;;;;27.19;41.07;98729.56;4975250;28;20030;-76
2022/08/05 01:06:05;;;;;;;2.75;2.30;;;;;;;27.21;40.99;98738.19;4974994;28;20046;-76
2022/08/05 01:08:30;;;;;;;4.25;2.50;;;;;;;27.19;40.94;98740.28;4991207;28;20027;-76
2022/08/05 01:11:17;;;;;;;3.33;2.35;;;;;;;27.18;41.39;98738.66;4975230;28;20033;-76
2022/08/05 01:13:58;;;;;;;4.80;2.40;;;;;;;27.19;41.28;98737.59;4975368;28;20491;-76
2022/08/05 01:16:56;;;;;;;5.97;2.28;;;;;;;27.19;40.86;98740.28;4976193;28;20027;-76
2022/08/05 01:19:22;;;;;;;2.53;2.20;;;;;;;27.19;41.04;98740.28;4942627;29;20047;-75
2022/08/05 01:22:10;;;;;;;3.10;2.20;;;;;;;27.17;40.95;98739.72;4954723;29;20031;-76
2022/08/05 01:24:44;;;;;;;2.88;2.15;;;;;;;27.16;41.42;98740.75;4938979;29;20035;-76
2022/08/05 01:27:44;;;;;;;2.92;2.15;;;;;;;27.13;41.07;98739.31;4954132;29;20075;-76
2022/08/05 01:30:09;;;;;;;4.43;2.33;;;;;;;27.13;41.60;98736.63;4881953;29;20105;-75
2022/08/05 01:32:35;;;;;;;5.13;2.28;;;;;;;27.12;41.21;98736.84;4881910;29;20076;-76
2022/08/05 01:35:06;;;;;;;3.10;2.20;;;;;;;27.13;41.52;98739.31;4851045;29;20041;-75
2022/08/05 01:37:32;;;;;;;3.85;2.38;;;;;;;27.14;41.53;98740.16;4851108;29;20127;-76
2022/08/05 01:39:57;;;;;;;4.38;2.38;;;;;;;27.14;41.43;98737.47;4897546;29;20560;-75
2022/08/05 01:42:23;;;;;;;4.75;2.33;;;;;;;27.13;41.00;98735.81;4866362;29;20093;-75
2022/08/05 01:44:48;;;;;;;3.72;2.50;;;;;;;27.13;41.39;98742.00;4866581;29;20079;-76
2022/08/05 01:47:20;;;;;;;4.40;2.78;;;;;;;27.09;41.18;98732.78;4866068;29;20048;-75
2022/08/05 01:49:47;;;;;;;2.78;2.10;;;;;;;27.10;41.46;98728.25;4851310;29;20070;-76
2022/08/05 01:52:12;;;;;;;2.60;2.25;;;;;;;27.11;41.25;98738.72;4850967;29;20102;-75
2022/08/05 01:54:44;;;;;;;3.63;2.58;;;;;;;27.11;41.34;98729.88;4888802;29;20044;-76
2022/08/05 01:57:09;;;;;;;3.67;2.00;;;;;;;27.11;41.39;98735.25;4900285;29;20068;-76
2022/08/05 01:59:35;;;;;;;2.97;2.28;;;;;;;27.09;41.26;98724.75;4900591;29;20475;-76
2022/08/05 02:02:00;;;;;;;3.65;2.10;;;;;;;27.11;41.15;98725.34;4899478;29;20092;-76
2022/08/05 02:04:27;;;;;;;3.28;1.98;;;;;;;27.12;40.81;98721.63;4915740;29;20036;-76
2022/08/05 02:06:53;;;;;;;3.90;2.00;;;;;;;27.13;40.97;98723.25;4926346;28;20042;-76
2022/08/05 02:09:18;;;;;;;4.20;2.28;;;;;;;27.14;41.20;98716.03;4974203;28;20038;-76
2022/08/05 02:12:00;;;;;;;4.47;2.03;;;;;;;27.16;41.02;98716.63;4957798;28;20042;-76
2022/08/05 02:14:51;;;;;;;4.95;2.60;;;;;;;27.16;41.10;98717.44;4975374;28;20031;-76
2022/08/05 02:17:22;;;;;;;3.05;2.30;;;;;;;27.16;40.81;98714.75;4974103;28;20029;-76
2022/08/05 02:19:50;;;;;;;3.00;2.30;;;;;;;27.18;40.40;98726.06;4974314;28;20506;-76
2022/08/05 02:22:22;;;;;;;3.50;2.08;;;;;;;27.16;40.57;98720.13;4957614;28;20058;-76
2022/08/05 02:24:51;;;;;;;3.25;2.10;;;;;;;27.16;40.53;98728.16;4958054;28;20039;-76
2022/08/05 02:27:16;;;;;;;4.53;2.08;;;;;;;27.15;40.69;98723.84;4974132;28;20029;-76
2022/08/05 02:29:42;;;;;;;3.75;2.17;;;;;;;27.15;40.54;98720.34;4957178;28;20042;-76
2022/08/05 02:32:07;;;;;;;3.67;2.30;;;;;;;27.13;40.36;98714.41;4973843;28;20031;-76
2022/08/05 02:34:33;;;;;;;4.72;2.10;;;;;;;27.15;40.42;98723.84;4973586;28;20026;-76
2022/08/05 02:37:00;;;;;;;3.78;2.13;;;;;;;27.10;40.56;98714.84;4973280;28;20521;-76
2022/08/05 02:39:26;;;;;;;3.23;2.33;;;;;;;27.11;40.26;98713.81;4957148;28;20037;-76
2022/08/05 02:41:52;;;;;;;5.95;2.17;;;;;;;27.08;40.46;98704.34;4972314;28;20090;-76
2022/08/05 02:44:18;;;;;;;4.28;2.05;;;;;;;27.07;40.31;98706.22;4957329;28;20141;-77
2022/08/05 02:46:44;;;;;;;2.30;1.80;;;;;;;27.10;40.47;98709.47;4973300;28;20026;-76
2022/08/05 02:49:10;;;;;;;4.82;2.10;;;;;;;27.09;40.27;98708.69;4957149;28;20027;-76
2022/08/05 02:51:36;;;;;;;3.17;1.95;;;;;;;27.12;39.94;98704.72;4956978;28;20077;-76
2022/08/05 02:54:02;;;;;;;3.40;2.13;;;;;;;27.13;39.70;98706.34;4957113;28;20130;-76
2022/08/05 02:56:27;;;;;;;2.50;1.90;;;;;;;27.13;39.85;98709.03;4957147;28;20038;-76
2022/08/05 02:58:53;;;;;;;5.60;2.10;;;;;;;27.16;40.01;98705.91;4972957;28;20019;-76
2022/08/05 03:01:22;;;;;;;4.07;2.20;;;;;;;27.15;39.60;98710.47;4973397;28;20471;-76
2022/08/05 03:03:49;;;;;;;5.60;2.25;;;;;;;27.15;39.63;98704.25;4957217;28;20438;-76
2022/08/05 03:06:14;;;;;;;4.78;1.98;;;;;;;27.15;39.56;98705.09;4956628;28;20042;-76
2022/08/05 03:08:40;;;;;;;2.70;2.05;;;;;;;27.15;39.39;98702.41;4973032;28;20372;-77
2022/08/05 03:11:26;;;;;;;5.13;2.17;;;;;;;27.14;39.66;98706.13;4972554;28;20129;-76
2022/08/05 03:13:52;;;;;;;5.30;2.28;;;;;;;27.10;39.46;98696.91;4956235;28;20045;-76
2022/08/05 03:16:17;;;;;;;2.70;1.73;;;;;;;27.13;39.50;98699.13;4973035;28;20023;-77
2022/08/05 03:18:43;;;;;;;2.80;1.80;;;;;;;27.11;39.52;98701.22;4972482;28;20062;-76
2022/08/05 03:21:08;;;;;;;2.85;1.90;;;;;;;27.26;39.21;98698.13;4972697;28;20403;-76
2022/08/05 03:23:34;;;;;;;2.75;1.83;;;;;;;27.31;39.00;98695.66;4988895;28;20494;-76
2022/08/05 03:26:00;;;;;;;5.10;2.08;;;;;;;27.30;38.79;98704.69;4972824;28;20363;-76
2022/08/05 03:28:26;;;;;;;3.63;2.00;;;;;;;27.30;39.23;98704.69;4972386;28;20509;-76
2022/08/05 03:30:52;;;;;;;3.45;1.60;;;;;;;27.36;38.79;98705.69;4972611;28;20109;-77
2022/08/05 03:33:17;;;;;;;2.97;1.90;;;;;;;27.37;39.00;98704.63;4972672;28;20471;-77
2022/08/05 03:35:46;;;;;;;5.55;1.92;;;;;;;27.40;38.80;98704.16;4972574;28;20039;-76
2022/08/05 03:38:13;;;;;;;3.55;1.83;;;;;;;27.43;38.97;98711.75;4956375;28;20038;-76
2022/08/05 03:40:42;;;;;;;3.22;2.10;;;;;;;27.43;38.62;98707.19;4956800;28;20035;-76
2022/08/05 03:43:07;;;;;;;3.53;2.35;;;;;;;27.50;38.74;98706.28;4972785;28;20034;-76
2022/08/05 03:45:33;;;;;;;3.08;1.95;;;;;;;27.54;38.73;98710.16;4988702;28;20410;-77
2022/08/05 03:47:58;;;;;;;3.08;2.10;;;;;;;27.60;38.51;98706.56;4973544;28;20034;-77
2022/08/05 03:50:31;;;;;;;3.65;2.10;;;;;;;27.65;38.40;98713.94;4972588;28;20417;-77
2022/08/05 03:53:00;;;;;;;4.07;2.08;;;;;;;27.67;38.49;98712.63;4973337;28;20489;-76
2022/08/05 03:55:32;;;;;;;3.90;2.03;;;;;;;27.97;37.95;98703.75;4940623;28;20125;-77
2022/08/05 03:57:58;;;;;;;3.63;2.30;;;;;;;27.96;37.84;98711.00;4956525;28;20034;-76
2022/08/05 04:00:28;;;;;;;4.00;2.47;;;;;;;28.00;37.85;98710.53;4956157;28;20414;-76
2022/08/05 04:02:54;;;;;;;5.97;2.88;;;;;;;27.95;37.91;98704.00;4972426;28;20413;-78
2022/08/05 04:05:19;;;;;;;4.00;2.70;;;;;;;28.01;37.97;98715.69;4972258;28;20026;-77
2022/08/05 04:07:45;;;;;;;3.60;2.35;;;;;;;28.03;37.83;98712.75;4972142;28;20406;-77
2022/08/05 04:10:10;;;;;;;6.13;2.33;;;;;;;28.07;37.71;98712.06;4972531;28;20031;-79
2022/08/05 04:12:36;;;;;;;3.17;2.28;;;;;;;28.90;36.13;98721.97;4972267;28;20031;-77
2022/08/05 04:15:01;;;;;;;3.22;2.50;;;;;;;30.05;34.33;98717.41;4955940;28;20478;-74
2022/08/05 04:17:27;;;;;;;8.13;2.50;;;;;;;31.11;32.60;98709.50;4973017;28;20035;-79
2022/08/05 04:19:53;;;;;;;6.03;2.22;;;;;;;32.22;31.04;98705.41;4944756;28;20058;-80
2022/08/05 04:22:18;;;;;;;8.32;2.30;;;;;;;33.22;29.39;98711.09;4954389;29;20521;-77
2022/08/05 04:24:44;;;;;;;13.10;2.15;;;;;;;34.13;27.77;98715.00;4969106;28;20039;-76
2022/08/05 04:27:13;;;;;;;9.98;2.10;;;;;;;35.04;26.36;98709.63;4969044;28;20110;-77
2022/08/05 04:29:39;;;;;;;10.85;2.08;;;;;;;35.90;25.09;98712.09;4970988;28;20491;-90
2022/08/05 04:32:05;;;;;;;3.80;1.92;;;;;;;36.65;24.04;98713.53;4977293;28;20034;-91
2022/08/05 04:34:31;;;;;;;10.23;1.63;;;;;;;37.38;22.78;98710.75;4975956;28;20482;-87
2022/08/05 04:36:56;;;;;;;6.63;1.70;;;;;;;38.08;21.93;98709.94;4993344;28;20026;-87
2022/08/05 04:39:22;;;;;;;6.32;2.00;;;;;;;38.66;21.46;98705.09;4979513;28;20062;-89
2022/08/05 04:41:47;;;;;;;3.80;1.50;;;;;;;39.24;20.51;98706.34;4993262;28;20433;-90
2022/08/05 04:44:13;;;;;;;7.18;2.00;;;;;;;39.79;20.14;98706.16;4977249;28;20525;-77
2022/08/05 04:46:38;;;;;;;4.50;1.60;;;;;;;40.44;19.61;98712.16;4975413;28;20046;-78
2022/08/05 04:49:05;;;;;;;8.25;1.67;;;;;;;41.09;18.86;98692.53;4991354;28;20038;-80
2022/08/05 04:51:31;;;;;;;4.63;1.30;;;;;;;41.57;18.56;98702.56;4959792;28;20494;-77
2022/08/05 04:53:57;;;;;;;4.25;1.60;;;;;;;42.07;17.58;98699.25;4975397;28;20050;-78
2022/08/05 04:56:23;;;;;;;7.00;1.70;;;;;;;42.53;17.27;98702.31;4975565;28;20035;-77
2022/08/05 04:58:48;;;;;;;15.10;2.08;;;;;;;43.05;16.64;98698.50;4976462;28;20030;-75
2022/08/05 05:01:14;;;;;;;6.37;1.47;;;;;;;43.55;16.30;98699.56;4975771;28;20063;-74
2022/08/05 05:03:40;;;;;;;8.93;1.50;;;;;;;44.00;15.64;98692.53;4975230;28;20042;-81
2022/08/05 05:06:08;;;;;;;6.37;1.57;;;;;;;44.49;15.27;98697.25;4959242;28;20031;-81
2022/08/05 05:08:35;;;;;;;7.60;1.48;;;;;;;45.00;14.41;98700.47;4975848;28;20110;-80
2022/08/05 05:11:01;;;;;;;5.35;1.40;;;;;;;45.47;14.03;98699.09;4974982;28;20034;-79
2022/08/05 05:13:26;;;;;;;2.83;1.30;;;;;;;45.90;13.68;98689.22;4957696;28;20043;-80
2022/08/05 05:15:51;;;;;;;3.60;1.33;;;;;;;46.27;13.12;98694.50;4973180;28;20047;-79
2022/08/05 05:18:17;;;;;;;6.10;1.50;;;;;;;46.65;13.23;98695.81;4989995;28;20039;-77
2022/08/05 05:20:43;;;;;;;22.73;5.47;;;;;;;46.70;13.67;98691.97;4941467;28;20533;-78
2022/08/05 05:23:08;;;;;;;16.30;3.65;;;;;;;47.05;13.35;98694.75;4956377;28;20035;-78
2022/08/05 05:25:34;;;;;;;12.23;3.67;;;;;;;47.39;12.83;98695.06;4974773;28;20034;-77
2022/08/05 05:28:00;;;;;;;15.60;3.27;;;;;;;47.72;12.74;98688.19;4941045;28;20031;-78
2022/08/05 05:30:25;;;;;;;8.77;2.83;;;;;;;48.03;12.38;98691.88;4956645;28;20042;-72
2022/08/05 05:32:51;;;;;;;10.70;3.07;;;;;;;48.25;12.17;98690.28;4971805;28;20029;-71
2022/08/05 05:35:17;;;;;;;11.43;2.72;;;;;;;48.47;11.78;98693.41;4973264;28;20022;-73
2022/08/05 05:37:49;;;;;;;4.93;2.03;;;;;;;48.68;11.73;98690.16;4974596;28;20030;-71
2022/08/05 05:40:16;;;;;;;6.55;2.17;;;;;;;48.83;11.59;98696.75;4958507;28;20062;-71
2022/08/05 05:42:41;;;;;;;5.90;1.63;;;;;;;49.02;11.35;98698.56;4974232;28;20074;-71
2022/08/05 05:45:07;;;;;;;6.50;1.80;;;;;;;49.16;11.44;98686.91;4975326;28;20042;-72
2022/08/05 05:47:34;;;;;;;6.38;1.60;;;;;;;49.31;11.35;98690.63;4970671;28;20494;-72
2022/08/05 05:49:59;;;;;;;7.25;1.60;;;;;;;49.47;10.96;98690.38;4971127;28;20062;-72
2022/08/05 05:52:25;;;;;;;4.93;1.50;;;;;;;49.56;11.05;98693.69;4970979;28;20038;-72
2022/08/05 05:54:50;;;;;;;4.63;1.47;;;;;;;49.67;10.59;98693.81;4954338;29;20518;-75
2022/08/05 05:57:16;;;;;;;6.00;1.23;;;;;;;49.75;10.90;98695.47;4971173;28;20035;-72
2022/08/05 05:59:41;;;;;;;5.50;1.53;;;;;;;49.86;10.68;98696.38;4953810;29;20491;-74
2022/08/05 06:02:07;;;;;;;4.47;1.30;;;;;;;49.96;11.28;98697.66;4964343;28;20035;-70
2022/08/05 06:04:32;;;;;;;13.70;3.00;;;;;;;49.69;11.06;98700.56;4957021;28;20106;-75
2022/08/05 06:06:58;;;;;;;7.50;2.17;;;;;;;49.63;11.03;98693.78;4971914;28;20079;-75
2022/08/05 06:09:23;;;;;;;6.20;1.80;;;;;;;49.65;11.18;98691.41;4971447;28;20398;-76
2022/08/05 06:11:49;;;;;;;5.03;1.40;;;;;;;49.68;10.19;98689.88;4971383;28;20035;-75
2022/08/05 06:14:14;;;;;;;6.43;1.33;;;;;;;49.62;10.21;98683.84;4971980;28;20038;-76
2022/08/05 06:16:40;;;;;;;3.67;1.30;;;;;;;49.66;10.15;98684.69;4970161;28;20027;-75
2022/08/05 06:19:05;;;;;;;3.93;1.27;;;;;;;49.62;10.29;98683.84;4955119;28;20062;-78
2022/08/05 06:21:33;;;;;;;4.33;1.13;;;;;;;49.64;10.72;98683.47;4966486;28;20274;-76
2022/08/05 06:23:59;;;;;;;5.80;1.20;;;;;;;49.61;10.89;98685.03;4971316;28;20031;-76
2022/08/05 06:26:25;;;;;;;2.53;1.00;;;;;;;49.65;10.41;98690.63;4954436;28;20110;-75
2022/08/05 06:28:50;;;;;;;6.95;1.00;;;;;;;49.60;10.01;98694.53;4968448;28;20106;-75
2022/08/05 06:31:16;;;;;;;3.67;1.33;;;;;;;49.51;9.92;98689.28;4955326;28;20031;-75
2022/08/05 06:33:41;;;;;;;3.57;0.97;;;;;;;49.48;10.40;98689.22;4953688;28;20098;-75
2022/08/05 06:36:07;;;;;;;5.00;1.10;;;;;;;49.44;10.78;98691.97;4955013;28;20070;-75
2022/08/05 06:38:32;;;;;;;7.57;1.00;;;;;;;49.38;10.08;98688.72;4972258;28;20034;-74
2022/08/05 06:40:58;;;;;;;2.80;1.03;;;;;;;49.38;10.28;98680.41;4969264;28;20039;-75
2022/08/05 06:43:23;;;;;;;4.20;1.00;;;;;;;49.37;10.13;98694.66;4987530;28;20027;-76
2022/08/05 06:45:49;;;;;;;4.50;0.83;;;;;;;49.28;9.99;98686.66;4970557;28;20526;-74
2022/08/05 06:48:14;;;;;;;4.43;0.97;;;;;;;49.23;10.58;98684.19;4952863;28;20082;-76
2022/08/05 06:50:40;;;;;;;3.97;1.00;;;;;;;49.24;10.32;98688.56;4970658;28;20093;-75
2022/08/05 06:53:05;;;;;;;6.90;1.00;;;;;;;49.23;10.60;98685.00;4969987;28;20525;-77
2022/08/05 06:55:31;;;;;;;3.33;0.67;;;;;;;49.16;10.16;98684.13;4987118;28;20030;-75
2022/08/05 06:57:56;;;;;;;3.67;1.03;;;;;;;49.12;10.38;98686.81;4968954;28;20058;-76
2022/08/05 07:00:22;;;;;;;2.73;1.20;;;;;;;49.07;10.13;98682.41;4969890;28;20027;-75
2022/08/05 07:02:47;;;;;;;4.73;1.20;;;;;;;49.00;10.26;98682.31;4970328;28;20026;-74
2022/08/05 07:05:13;;;;;;;3.73;0.90;;;;;;;48.94;10.16;98677.50;4970650;28;20530;-78
2022/08/05 07:07:42;;;;;;;4.20;1.05;;;;;;;48.88;10.66;98679.78;4969246;28;20045;-75
2022/08/05 07:10:08;;;;;;;3.05;1.05;;;;;;;48.84;10.47;98674.19;4970360;28;20114;-77
2022/08/05 07:18:02;;;;;;;4.88;1.00;;;;;;;48.54;10.36;98691.56;4969383;28;20049;-74
2022/08/05 07:20:27;;;;;;;6.30;1.00;;;;;;;48.40;10.02;98696.84;4969131;28;20491;-77
2022/08/05 07:22:53;;;;;;;4.23;0.80;;;;;;;48.24;10.28;98683.19;4937203;28;20133;-74
2022/08/05 07:25:18;;;;;;;3.43;1.10;;;;;;;48.15;9.66;98696.47;4970133;28;20034;-72
2022/08/05 07:27:44;;;;;;;4.80;0.93;;;;;;;47.97;9.89;98691.41;4952439;28;20035;-73
2022/08/05 07:30:10;;;;;;;4.83;1.00;;;;;;;47.85;10.00;98688.03;4969552;28;20038;-73
2022/08/05 07:32:36;;;;;;;2.90;1.13;;;;;;;46.94;10.35;98693.72;4969196;28;20530;-75
2022/08/05 07:35:09;;;;;;;2.67;0.98;;;;;;;46.42;11.20;98690.13;4952286;28;20478;-74
2022/08/05 07:37:34;;;;;;;3.40;1.10;;;;;;;46.14;11.71;98690.22;4965078;28;20090;-74
2022/08/05 07:40:00;;;;;;;3.20;0.90;;;;;;;45.85;11.94;98678.47;4986183;28;20517;-75
2022/08/05 07:42:25;;;;;;;8.13;1.20;;;;;;;44.69;12.32;98684.56;4953552;28;20050;-74
2022/08/05 07:44:51;;;;;;;4.17;1.13;;;;;;;43.94;12.83;98688.38;4953614;28;20066;-73
2022/08/05 07:47:16;;;;;;;5.00;1.17;;;;;;;43.64;13.39;98686.53;4953453;28;20031;-75
2022/08/05 07:49:42;;;;;;;2.37;1.07;;;;;;;43.07;13.87;98684.44;4953525;28;20146;-74
2022/08/05 07:52:07;;;;;;;10.93;1.30;;;;;;;42.58;14.64;98693.13;4970279;28;20505;-74
2022/08/05 07:54:33;;;;;;;5.40;1.20;;;;;;;42.53;15.02;98691.34;4953347;28;20109;-74
2022/08/05 07:56:58;;;;;;;4.97;1.20;;;;;;;42.46;15.28;98689.13;4969688;28;20030;-75
2022/08/05 07:59:24;;;;;;;3.87;1.07;;;;;;;42.46;15.38;98680.06;4969668;28;20066;-73
2022/08/05 08:01:49;;;;;;;3.17;1.30;;;;;;;42.93;14.81;98699.19;4978884;28;20073;-78
2022/08/05 08:04:15;;;;;;;7.68;1.40;;;;;;;42.89;14.47;98691.97;4989828;28;20035;-76
2022/08/05 08:06:40;;;;;;;5.83;1.50;;;;;;;43.07;14.40;98684.44;4992054;28;20035;-75
2022/08/05 08:09:06;;;;;;;3.80;1.30;;;;;;;43.49;14.00;98682.50;4959672;28;20125;-75
2022/08/05 08:11:32;;;;;;;3.87;1.20;;;;;;;43.36;14.21;98676.13;5009059;28;20387;-75
2022/08/05 08:13:57;;;;;;;6.37;1.50;;;;;;;43.07;14.34;98681.72;4992294;28;20129;-72
2022/08/05 08:16:23;;;;;;;4.03;0.97;;;;;;;42.78;14.51;98691.53;4991423;28;20557;-76
2022/08/05 08:18:48;;;;;;;4.20;0.90;;;;;;;42.02;14.92;98683.00;4950049;28;1221273;-74
2022/08/05 08:21:14;;;;;;;3.70;0.95;;;;;;;41.46;15.48;98671.16;4993884;28;20182;-75
2022/08/05 08:23:39;;;;;;;3.53;1.20;;;;;;;40.98;15.28;98673.69;4994627;28;20382;-75
2022/08/05 08:26:05;;;;;;;3.35;1.00;;;;;;;40.56;15.96;98678.72;4994034;28;20162;-75
2022/08/05 08:28:31;;;;;;;2.45;1.50;;;;;;;40.48;16.12;98680.31;4994220;28;20057;-75
2022/08/05 08:30:56;;;;;;;5.38;1.20;;;;;;;40.85;15.81;98689.13;4993883;28;20058;-81
2022/08/05 08:33:22;;;;;;;3.10;0.90;;;;;;;41.40;15.06;98678.72;4993723;28;20030;-73
2022/08/05 08:35:47;;;;;;;3.85;1.10;;;;;;;41.81;15.05;98671.91;4976694;28;20073;-76
2022/08/05 08:38:15;;;;;;;3.40;1.10;;;;;;;41.91;14.77;98670.78;4972528;28;20027;-75
2022/08/05 08:40:40;;;;;;;2.33;1.10;;;;;;;42.32;14.76;98669.38;4973880;28;20033;-74
2022/08/05 08:43:06;;;;;;;2.63;0.95;;;;;;;41.45;15.70;98664.88;4990195;28;20410;-75
2022/08/05 08:45:32;;;;;;;3.80;1.00;;;;;;;41.02;16.05;98662.91;4955780;28;20422;-76
2022/08/05 08:48:01;;;;;;;2.58;1.10;;;;;;;40.66;16.15;98664.78;4973725;28;20085;-76
2022/08/05 08:50:27;;;;;;;2.08;1.02;;;;;;;40.28;16.44;98658.97;4957584;28;20034;-75
2022/08/05 08:52:53;;;;;;;1.67;1.00;;;;;;;39.94;16.72;98657.69;4971815;28;20042;-75
2022/08/05 08:55:19;;;;;;;2.90;1.02;;;;;;;39.59;16.85;98649.28;4970439;28;20027;-73
2022/08/05 08:57:46;;;;;;;3.65;1.17;;;;;;;39.31;17.84;98648.59;4970856;28;20031;-74
2022/08/05 09:00:12;;;;;;;2.45;1.08;;;;;;;39.15;17.70;98650.88;4969208;28;20028;-84
2022/08/05 09:02:37;;;;;;;2.95;1.10;;;;;;;39.74;17.21;98632.53;4955710;28;20517;-82
2022/08/05 09:05:03;;;;;;;1.98;1.10;;;;;;;39.40;17.87;98639.34;4973393;28;20413;-79
2022/08/05 09:07:29;;;;;;;3.63;1.00;;;;;;;39.34;17.67;98637.84;4972403;28;20039;-82
2022/08/05 09:09:55;;;;;;;5.43;1.17;;;;;;;39.65;17.37;98633.56;4956872;28;20422;-81
2022/08/05 09:12:20;;;;;;;5.18;1.23;;;;;;;40.10;17.29;98623.38;4973776;28;20038;-77
2022/08/05 09:14:46;;;;;;;3.17;1.20;;;;;;;40.15;16.83;98623.25;4957040;28;20038;-76
2022/08/05 09:17:11;;;;;;;4.95;1.08;;;;;;;40.43;16.93;98624.97;4937675;29;20422;-76
2022/08/05 09:19:37;;;;;;;2.28;0.88;;;;;;;40.77;16.35;98626.97;4968637;28;20142;-76
2022/08/05 09:22:03;;;;;;;2.08;0.90;;;;;;;41.00;15.27;98621.38;4969661;28;20036;-78
2022/08/05 09:24:28;;;;;;;2.85;1.15;;;;;;;41.09;15.59;98622.19;4953539;29;20090;-75
2022/08/05 09:26:55;;;;;;;1.70;0.93;;;;;;;41.19;15.29;98601.88;4969454;28;20038;-76
2022/08/05 09:29:20;;;;;;;3.38;1.10;;;;;;;41.36;14.96;98612.84;4954449;28;20098;-76
2022/08/05 09:32:03;;;;;;;3.90;1.10;;;;;;;41.49;15.37;98618.47;4952905;29;20039;-75
2022/08/05 09:34:45;;;;;;;2.35;1.02;;;;;;;41.63;15.14;98618.28;4953643;29;20094;-76
2022/08/05 09:37:18;;;;;;;2.13;1.10;;;;;;;41.72;15.25;98602.63;4970369;28;20027;-76
2022/08/05 09:39:43;;;;;;;4.55;0.90;;;;;;;41.82;15.34;98610.50;4969973;28;20039;-77
2022/08/05 09:42:09;;;;;;;5.93;1.05;;;;;;;41.93;14.85;98611.75;4953785;29;20050;-76
2022/08/05 09:44:36;;;;;;;1.77;0.85;;;;;;;41.99;14.79;98606.06;4969576;28;20042;-75
2022/08/05 09:47:09;;;;;;;;;;;;;;;41.73;14.36;98605.03;4938299;29;20031;-76
2022/08/05 09:49:37;;;;;;;4.93;1.05;;;;;;;41.30;14.39;98594.16;4953558;29;19925;-77
2022/08/05 09:52:25;;;;;;;2.38;1.00;;;;;;;41.21;14.18;98602.34;4969736;28;20110;-76
2022/08/05 09:55:00;;;;;;;2.20;0.90;;;;;;;41.33;14.52;98599.78;4969555;28;20039;-75
2022/08/05 09:57:33;;;;;;;1.42;0.90;;;;;;;41.19;14.94;98599.94;4953598;29;20503;-75
2022/08/05 10:00:15;;;;;;;3.20;0.88;;;;;;;40.81;15.62;98600.56;4953408;29;20042;-74
2022/08/05 10:02:45;;;;;;;2.28;0.75;;;;;;;40.53;15.64;98602.78;4969377;28;20039;-75
2022/08/05 10:05:15;;;;;;;3.13;1.00;;;;;;;40.56;15.84;98585.72;4937138;29;20035;-75
2022/08/05 10:07:43;;;;;;;2.83;0.65;;;;;;;40.48;15.90;98590.06;4953404;29;20061;-75
2022/08/05 10:10:09;;;;;;;1.65;0.95;;;;;;;40.62;16.11;98592.66;4952937;29;20035;-77
2022/08/05 10:12:52;;;;;;;2.88;0.82;;;;;;;40.67;15.88;98591.72;4953522;29;20035;-76
2022/08/05 10:15:17;;;;;;;3.20;0.90;;;;;;;40.77;15.69;98580.47;4970838;28;20031;-76
2022/08/05 10:17:44;;;;;;;2.47;0.88;;;;;;;40.49;15.86;98574.47;4954032;29;20118;-74
2022/08/05 10:20:11;;;;;;;2.17;1.00;;;;;;;40.65;15.46;98558.41;4970020;28;20433;-76
2022/08/05 10:22:38;;;;;;;2.50;0.90;;;;;;;40.58;15.42;98574.47;4970168;28;20087;-76
2022/08/05 10:25:04;;;;;;;;;;;;;;;40.33;15.40;98577.63;4953940;29;20044;-74
2022/08/05 10:27:30;;;;;;;2.73;0.80;;;;;;;40.26;15.56;98571.00;4953309;28;19937;-75
2022/08/05 10:29:55;;;;;;;1.65;0.98;;;;;;;40.29;15.05;98557.50;4969905;28;20031;-75
2022/08/05 10:32:21;;;;;;;2.08;0.80;;;;;;;40.22;15.18;98556.38;4956593;28;20046;-76
2022/08/05 10:34:46;;;;;;;1.38;0.77;;;;;;;40.09;15.43;98561.66;4973411;28;20095;-77
2022/08/05 10:37:12;;;;;;;2.15;0.90;;;;;;;40.10;15.69;98567.91;4973199;28;20027;-76
2022/08/05 10:39:37;;;;;;;4.05;0.85;;;;;;;40.09;15.76;98564.38;4989443;28;20442;-76
2022/08/05 10:42:13;;;;;;;1.35;0.90;;;;;;;40.08;16.02;98561.97;4957017;28;20113;-75
2022/08/05 10:44:42;;;;;;;2.05;0.90;;;;;;;40.07;15.87;98555.69;4973271;28;20027;-75
2022/08/05 10:47:09;;;;;;;2.13;1.00;;;;;;;40.05;15.98;98548.94;4973003;28;20089;-76
2022/08/05 10:49:35;;;;;;;1.92;0.90;;;;;;;39.99;15.97;98548.25;4973529;28;20572;-76
2022/08/05 10:52:01;;;;;;;3.88;0.90;;;;;;;40.09;15.82;98549.91;4972488;28;20039;-75
2022/08/05 10:54:48;;;;;;;1.65;0.77;;;;;;;40.12;16.27;98536.41;4972988;28;20026;-75
2022/08/05 10:57:24;;;;;;;2.08;0.88;;;;;;;40.13;16.31;98542.69;4972503;28;20106;-77
2022/08/05 10:59:51;;;;;;;2.35;0.85;;;;;;;40.13;16.23;98548.94;4972930;28;20027;-76
2022/08/05 11:02:17;;;;;;;3.05;1.08;;;;;;;40.05;15.82;98538.81;4956640;28;20121;-76
2022/08/05 11:04:43;;;;;;;2.20;0.82;;;;;;;39.82;15.90;98535.31;4989122;28;20069;-76
2022/08/05 11:07:10;;;;;;;4.43;1.03;;;;;;;39.62;15.84;98529.28;4956322;28;20042;-75
2022/08/05 11:09:39;;;;;;;3.42;1.00;;;;;;;39.56;15.78;98527.03;4972729;28;20286;-76
2022/08/05 11:12:05;;;;;;;4.32;1.30;;;;;;;39.44;15.86;98533.03;4988865;28;20042;-75
2022/08/05 11:14:32;;;;;;;1.98;1.00;;;;;;;39.28;15.84;98537.28;4972687;28;20031;-75
2022/08/05 11:17:25;;;;;;;2.17;0.90;;;;;;;39.18;16.53;98536.41;4956535;28;20030;-76
2022/08/05 11:19:52;;;;;;;2.45;0.98;;;;;;;39.10;16.58;98520.78;4973812;28;20042;-75
2022/08/05 11:22:43;;;;;;;1.23;0.93;;;;;;;39.04;16.04;98522.81;4988316;28;20030;-75
2022/08/05 11:25:30;;;;;;;2.17;0.95;;;;;;;39.04;16.13;98519.28;4973343;28;20034;-76
2022/08/05 11:28:08;;;;;;;2.78;0.85;;;;;;;39.00;16.56;98504.63;4972432;28;20062;-76
2022/08/05 11:31:02;;;;;;;0.80;0.63;;;;;;;38.99;16.43;98509.28;4972562;28;20034;-76
2022/08/05 11:33:38;;;;;;;1.35;0.90;;;;;;;38.96;16.19;98501.72;4973484;28;20076;-76
2022/08/05 11:36:04;;;;;;;1.38;0.70;;;;;;;38.94;16.07;98506.69;4972682;28;20062;-76
2022/08/05 11:38:42;;;;;;;1.50;1.02;;;;;;;38.89;16.09;98502.16;4956052;28;20031;-76
2022/08/05 11:41:16;;;;;;;5.45;1.20;;;;;;;38.83;16.12;98499.88;4973274;28;20173;-74